Time;durP1;ratioP1;P1;durP2;ratioP2;P2;SDS_P1;SDS_P2;PMS_P1;PMS_P2;Temp;Humidity;BMP_temperature;BMP_pressure;BME280_temperature;BME280_humidity;BME280_pressure;Samples;Min_cycle;Max_cycle;Signal;HPM_P1;HPM_P2
2022/08/29 00:01:05;;;;;;;0.00;0.00;;;12.80;99.90;;;;;;4913274;29;20048;-79
2022/08/29 00:03:32;;;;;;;0.00;0.00;;;12.80;99.90;;;;;;4912520;29;20059;-81
2022/08/29 00:06:00;;;;;;;0.00;0.00;;;12.80;99.90;;;;;;4909548;29;20744;-81
2022/08/29 00:08:27;;;;;;;0.00;0.00;;;12.70;99.90;;;;;;4907644;29;20044;-80
2022/08/29 00:10:54;;;;;;;0.00;0.00;;;12.70;99.90;;;;;;4910956;29;20052;-79
2022/08/29 00:13:21;;;;;;;0.00;0.00;;;12.70;99.90;;;;;;4902825;29;20044;-79
2022/08/29 00:15:49;;;;;;;0.00;0.00;;;12.70;99.90;;;;;;4909617;29;20047;-80
2022/08/29 00:18:18;;;;;;;0.08;0.08;;;12.70;99.90;;;;;;4923390;29;20316;-80
2022/08/29 00:20:46;;;;;;;0.00;0.00;;;12.60;99.90;;;;;;4909805;29;20056;-79
2022/08/29 00:23:13;;;;;;;0.00;0.00;;;12.50;99.90;;;;;;4911731;29;20056;-80
2022/08/29 00:25:40;;;;;;;0.10;0.10;;;12.50;99.90;;;;;;4910629;29;20048;-79
2022/08/29 00:28:07;;;;;;;0.10;0.10;;;12.50;99.90;;;;;;4913604;29;20036;-81
2022/08/29 00:30:34;;;;;;;0.10;0.10;;;12.50;99.90;;;;;;4908678;29;20056;-78
2022/08/29 00:33:03;;;;;;;0.00;0.00;;;12.50;99.90;;;;;;4908708;29;20040;-80
2022/08/29 00:35:33;;;;;;;0.10;0.10;;;12.40;99.90;;;;;;4906904;29;20074;-80
2022/08/29 00:38:00;;;;;;;;;;;12.40;99.90;;;;;;4912187;29;20115;-79
2022/08/29 00:40:30;;;;;;;0.10;0.10;;;12.40;99.90;;;;;;4909863;29;19931;-80
2022/08/29 00:42:57;;;;;;;0.00;0.00;;;13.60;99.90;;;;;;4907017;29;20099;-79
2022/08/29 00:45:24;;;;;;;0.00;0.00;;;12.30;99.90;;;;;;4910069;29;20765;-80
2022/08/29 00:47:54;;;;;;;0.00;0.00;;;12.30;99.90;;;;;;4902097;29;20045;-80
2022/08/29 00:50:31;;;;;;;0.10;0.10;;;12.30;99.90;;;;;;4907388;29;20044;-79
2022/08/29 00:53:00;;;;;;;0.00;0.00;;;12.30;99.90;;;;;;4907082;29;20063;-79
2022/08/29 00:55:31;;;;;;;0.00;0.00;;;12.30;99.90;;;;;;4907423;29;20048;-81
2022/08/29 00:58:01;;;;;;;0.10;0.10;;;12.20;99.90;;;;;;4909205;29;20223;-80
2022/08/29 01:00:28;;;;;;;0.08;0.08;;;12.30;99.90;;;;;;4912459;29;20354;-79
2022/08/29 01:02:55;;;;;;;0.00;0.00;;;12.20;99.90;;;;;;4913213;29;20103;-78
2022/08/29 01:05:24;;;;;;;0.00;0.00;;;12.20;99.90;;;;;;4914316;29;20107;-80
2022/08/29 01:07:51;;;;;;;0.00;0.00;;;12.10;99.90;;;;;;4910329;29;20041;-80
2022/08/29 01:13:08;;;;;;;0.10;0.10;;;12.20;99.90;;;;;;4911159;29;20056;-79
2022/08/29 01:15:36;;;;;;;0.10;0.10;;;12.20;99.90;;;;;;4911015;29;20055;-79
2022/08/29 01:18:06;;;;;;;0.08;0.08;;;12.10;99.90;;;;;;4913020;29;20457;-80
2022/08/29 01:20:41;;;;;;;0.00;0.00;;;12.10;99.90;;;;;;4922520;29;20056;-80
2022/08/29 01:23:15;;;;;;;0.00;0.00;;;12.20;99.90;;;;;;4915265;29;20301;-79
2022/08/29 01:25:47;;;;;;;0.10;0.10;;;12.20;99.90;;;;;;4911715;29;20055;-79
2022/08/29 01:28:17;;;;;;;0.10;0.10;;;12.20;99.90;;;;;;4924836;29;20394;-79
2022/08/29 01:30:59;;;;;;;0.10;0.10;;;12.20;99.90;;;;;;4911113;29;20048;-81
2022/08/29 01:33:31;;;;;;;0.10;0.10;;;12.10;99.90;;;;;;4908400;29;20048;-80
2022/08/29 01:35:57;;;;;;;0.10;0.10;;;12.00;99.90;;;;;;4910991;29;20476;-78
2022/08/29 01:38:27;;;;;;;0.10;0.10;;;12.00;99.90;;;;;;4911756;29;20056;-78
2022/08/29 01:40:57;;;;;;;0.10;0.10;;;12.00;99.90;;;;;;4906416;29;20059;-80
2022/08/29 01:43:25;;;;;;;0.10;0.10;;;11.90;99.90;;;;;;4912285;29;20040;-81
2022/08/29 01:45:53;;;;;;;0.00;0.00;;;11.90;99.90;;;;;;4912053;29;20078;-80
2022/08/29 01:48:20;;;;;;;0.10;0.10;;;12.00;99.90;;;;;;4914678;29;20500;-80
2022/08/29 01:50:47;;;;;;;0.10;0.10;;;11.90;99.90;;;;;;4911828;29;20051;-80
2022/08/29 01:53:17;;;;;;;0.05;0.05;;;11.90;99.90;;;;;;4907358;29;20036;-81
2022/08/29 01:55:44;;;;;;;0.10;0.10;;;11.90;99.90;;;;;;4913276;29;20055;-79
2022/08/29 01:58:12;;;;;;;0.00;0.00;;;12.00;99.90;;;;;;4910366;29;20044;-80
2022/08/29 02:00:39;;;;;;;0.10;0.10;;;12.00;99.90;;;;;;4907138;29;20051;-80
2022/08/29 02:03:06;;;;;;;0.00;0.00;;;11.90;99.90;;;;;;4914263;29;20125;-79
2022/08/29 02:05:33;;;;;;;0.00;0.00;;;12.00;99.90;;;;;;4925863;29;20063;-76
2022/08/29 02:08:01;;;;;;;0.03;0.03;;;12.00;99.90;;;;;;4911053;29;20048;-81
2022/08/29 02:10:29;;;;;;;0.00;0.00;;;12.00;99.90;;;;;;4910773;29;20044;-79
2022/08/29 02:12:56;;;;;;;0.10;0.10;;;12.00;99.90;;;;;;4911972;29;20047;-80
2022/08/29 02:15:24;;;;;;;0.10;0.10;;;12.00;99.90;;;;;;4909428;29;20540;-79
2022/08/29 02:17:51;;;;;;;0.00;0.00;;;11.90;99.90;;;;;;4913230;29;20084;-78
2022/08/29 02:20:18;;;;;;;0.10;0.10;;;11.80;99.90;;;;;;4908759;29;20505;-80
2022/08/29 02:22:45;;;;;;;0.00;0.00;;;11.80;99.90;;;;;;4913078;29;20103;-79
2022/08/29 02:27:58;;;;;;;0.10;0.10;;;11.70;99.90;;;;;;4917256;29;20472;-79
2022/08/29 02:30:26;;;;;;;0.00;0.00;;;11.70;99.90;;;;;;4906178;29;20044;-79
2022/08/29 02:32:53;;;;;;;0.10;0.10;;;11.80;99.90;;;;;;4911219;29;20094;-78
2022/08/29 02:35:21;;;;;;;0.10;0.10;;;11.70;99.90;;;;;;4910548;29;20119;-79
2022/08/29 02:37:50;;;;;;;0.10;0.10;;;11.70;99.90;;;;;;4910996;29;20052;-80
2022/08/29 02:40:17;;;;;;;0.10;0.10;;;11.60;99.90;;;;;;4913478;29;20056;-79
2022/08/29 02:42:44;;;;;;;0.10;0.10;;;11.60;99.90;;;;;;4912669;29;20044;-79
2022/08/29 02:45:11;;;;;;;0.10;0.10;;;11.70;99.90;;;;;;4909555;29;20044;-80
2022/08/29 02:47:40;;;;;;;0.10;0.10;;;11.70;99.90;;;;;;4925051;29;20064;-79
2022/08/29 02:50:09;;;;;;;0.00;0.00;;;11.60;99.90;;;;;;4912562;29;20044;-79
2022/08/29 02:52:37;;;;;;;0.00;0.00;;;11.60;99.90;;;;;;4927695;29;20056;-79
2022/08/29 02:55:06;;;;;;;0.00;0.00;;;11.60;99.90;;;;;;4932062;23;20076;-79
2022/08/29 02:57:32;;;;;;;0.10;0.10;;;11.60;99.90;;;;;;4902443;29;20045;-80
2022/08/29 02:59:59;;;;;;;0.08;0.08;;;11.50;99.90;;;;;;4918971;29;20048;-80
2022/08/29 03:02:26;;;;;;;0.10;0.10;;;11.60;99.90;;;;;;4899341;29;20052;-80
2022/08/29 03:04:54;;;;;;;0.10;0.10;;;11.60;99.90;;;;;;4902249;29;20048;-79
2022/08/29 03:07:21;;;;;;;0.10;0.10;;;11.60;99.90;;;;;;4900981;29;20104;-79
2022/08/29 03:09:48;;;;;;;0.10;0.10;;;11.40;99.90;;;;;;4895163;29;20081;-81
2022/08/29 03:12:15;;;;;;;0.10;0.10;;;11.50;99.90;;;;;;4900899;29;20068;-81
2022/08/29 03:14:42;;;;;;;0.10;0.10;;;11.50;99.90;;;;;;4899563;29;20100;-81
2022/08/29 03:17:09;;;;;;;0.00;0.00;;;11.50;99.90;;;;;;4897681;29;20057;-81
2022/08/29 03:19:36;;;;;;;0.05;0.05;;;11.60;99.90;;;;;;4897817;29;20045;-82
2022/08/29 03:22:05;;;;;;;0.05;0.05;;;11.60;99.90;;;;;;4896987;29;20055;-80
2022/08/29 03:24:33;;;;;;;0.00;0.00;;;11.70;99.90;;;;;;4901995;29;20055;-80
2022/08/29 03:27:00;;;;;;;0.10;0.10;;;11.60;99.90;;;;;;4894267;29;20041;-80
2022/08/29 03:29:27;;;;;;;0.10;0.10;;;11.60;99.90;;;;;;4910726;29;20470;-82
2022/08/29 03:31:57;;;;;;;0.10;0.10;;;11.60;99.90;;;;;;4897958;29;20049;-81
2022/08/29 03:34:23;;;;;;;0.00;0.00;;;11.70;99.90;;;;;;4907698;29;20221;-81
2022/08/29 03:36:51;;;;;;;0.10;0.10;;;11.70;99.90;;;;;;4897019;29;21931;-81
2022/08/29 03:39:19;;;;;;;0.10;0.10;;;11.70;99.90;;;;;;4899261;29;20668;-82
2022/08/29 03:41:46;;;;;;;0.10;0.10;;;11.70;99.90;;;;;;4898918;29;20044;-81
2022/08/29 03:44:13;;;;;;;0.10;0.10;;;11.70;99.90;;;;;;4900676;29;20470;-81
2022/08/29 03:46:40;;;;;;;0.00;0.00;;;11.70;99.90;;;;;;4902681;29;20086;-80
2022/08/29 03:49:07;;;;;;;0.05;0.05;;;11.70;99.90;;;;;;4899507;29;20040;-81
2022/08/29 03:51:36;;;;;;;0.10;0.10;;;11.80;99.90;;;;;;4897335;29;20072;-80
2022/08/29 03:54:03;;;;;;;0.10;0.10;;;11.80;99.90;;;;;;4913438;29;20532;-80
2022/08/29 03:56:31;;;;;;;0.00;0.00;;;11.80;99.90;;;;;;4897569;29;20048;-81
2022/08/29 03:58:58;;;;;;;0.00;0.00;;;11.80;99.90;;;;;;4909371;29;20052;-81
2022/08/29 04:01:27;;;;;;;0.10;0.10;;;11.80;99.90;;;;;;4896806;29;20052;-81
2022/08/29 04:03:56;;;;;;;0.00;0.00;;;11.90;99.90;;;;;;4915945;29;20055;-81
2022/08/29 04:06:25;;;;;;;0.00;0.00;;;11.90;99.90;;;;;;4892172;29;20506;-81
2022/08/29 04:08:52;;;;;;;0.00;0.00;;;12.00;99.90;;;;;;4899000;29;20048;-80
2022/08/29 04:11:22;;;;;;;0.00;0.00;;;12.00;99.90;;;;;;4895521;29;20458;-82
2022/08/29 04:13:51;;;;;;;0.00;0.00;;;12.00;99.90;;;;;;4895922;29;20049;-81
2022/08/29 04:16:21;;;;;;;0.08;0.08;;;12.00;99.90;;;;;;4896638;29;20088;-81
2022/08/29 04:18:48;;;;;;;0.00;0.00;;;12.10;99.90;;;;;;4901970;29;20081;-81
2022/08/29 04:21:15;;;;;;;0.00;0.00;;;12.10;99.90;;;;;;4896234;29;20056;-81
2022/08/29 04:23:44;;;;;;;0.00;0.00;;;12.20;99.90;;;;;;4894737;29;20048;-81
2022/08/29 04:26:14;;;;;;;0.00;0.00;;;12.20;99.90;;;;;;4898548;29;20040;-82
2022/08/29 04:29:03;;;;;;;0.00;0.00;;;12.30;99.90;;;;;;4900541;29;20503;-81
2022/08/29 04:31:30;;;;;;;0.00;0.00;;;12.40;99.90;;;;;;4900309;29;20048;-81
2022/08/29 04:33:57;;;;;;;0.10;0.10;;;12.40;99.90;;;;;;4898933;29;20481;-80
2022/08/29 04:36:24;;;;;;;0.00;0.00;;;12.50;99.90;;;;;;4899244;29;20039;-81
2022/08/29 04:38:51;;;;;;;0.00;0.00;;;12.50;99.90;;;;;;4899321;29;20048;-81
2022/08/29 04:41:18;;;;;;;0.00;0.00;;;12.50;99.90;;;;;;4892044;29;20339;-82
2022/08/29 04:43:45;;;;;;;0.00;0.00;;;12.50;99.90;;;;;;4897672;29;20100;-81
2022/08/29 04:46:14;;;;;;;0.00;0.00;;;12.60;99.90;;;;;;4897058;29;20092;-81
2022/08/29 04:48:50;;;;;;;0.00;0.00;;;12.60;99.90;;;;;;4901777;29;20041;-82
2022/08/29 04:51:17;;;;;;;0.00;0.00;;;12.60;99.90;;;;;;4891538;29;20450;-82
2022/08/29 04:53:45;;;;;;;0.00;0.00;;;12.50;99.90;;;;;;4895171;29;20040;-81
2022/08/29 04:56:12;;;;;;;0.00;0.00;;;12.50;99.90;;;;;;4900339;29;20048;-80
2022/08/29 04:58:42;;;;;;;0.00;0.00;;;12.50;99.90;;;;;;4900299;29;20041;-81
2022/08/29 05:01:12;;;;;;;0.00;0.00;;;12.50;99.90;;;;;;4915301;29;20107;-81
2022/08/29 05:03:40;;;;;;;0.00;0.00;;;12.60;99.90;;;;;;4902935;29;20048;-81
2022/08/29 05:06:10;;;;;;;0.03;0.03;;;12.50;99.90;;;;;;4899046;29;20104;-81
2022/08/29 05:08:39;;;;;;;0.00;0.00;;;12.50;99.90;;;;;;4897624;29;20045;-81
2022/08/29 05:11:10;;;;;;;0.00;0.00;;;12.60;99.90;;;;;;4901777;29;20051;-81
2022/08/29 05:13:37;;;;;;;0.00;0.00;;;12.60;99.90;;;;;;4902180;29;20053;-80
2022/08/29 05:16:05;;;;;;;0.00;0.00;;;12.70;99.90;;;;;;4901215;29;20053;-81
2022/08/29 05:18:32;;;;;;;0.00;0.00;;;12.70;99.90;;;;;;4900093;29;20045;-82
2022/08/29 05:21:00;;;;;;;0.00;0.00;;;12.70;99.90;;;;;;4897930;29;20092;-81
2022/08/29 05:23:27;;;;;;;0.00;0.00;;;12.80;99.90;;;;;;4900970;29;20047;-81
2022/08/29 05:25:57;;;;;;;0.05;0.05;;;12.80;99.90;;;;;;4904867;29;20108;-81
2022/08/29 05:28:24;;;;;;;0.00;0.00;;;12.80;99.90;;;;;;4910913;29;20049;-81
2022/08/29 05:30:50;;;;;;;0.00;0.00;;;12.90;99.90;;;;;;4901377;29;20044;-81
2022/08/29 05:33:17;;;;;;;0.00;0.00;;;13.00;99.90;;;;;;4901583;29;20053;-81
2022/08/29 05:35:44;;;;;;;0.00;0.00;;;13.00;99.90;;;;;;4899684;29;20052;-82
2022/08/29 05:38:13;;;;;;;0.00;0.00;;;13.10;99.90;;;;;;4901736;29;20057;-81
2022/08/29 05:40:41;;;;;;;0.00;0.00;;;13.20;99.90;;;;;;4902175;29;20044;-81
2022/08/29 05:43:11;;;;;;;0.00;0.00;;;13.20;99.90;;;;;;4902028;29;20053;-81
2022/08/29 05:45:39;;;;;;;0.00;0.00;;;13.30;99.90;;;;;;4903732;29;20052;-82
2022/08/29 05:48:08;;;;;;;0.00;0.00;;;13.10;99.90;;;;;;4904394;29;20047;-82
2022/08/29 05:50:37;;;;;;;0.00;0.00;;;13.20;99.90;;;;;;4904834;29;20052;-82
2022/08/29 05:53:04;;;;;;;0.00;0.00;;;13.30;99.90;;;;;;4901732;29;20069;-82
2022/08/29 05:55:32;;;;;;;0.00;0.00;;;13.40;99.90;;;;;;4904438;29;20293;-81
2022/08/29 05:57:59;;;;;;;0.00;0.00;;;13.50;99.90;;;;;;4902997;29;20040;-81
2022/08/29 06:00:26;;;;;;;0.00;0.00;;;13.60;99.90;;;;;;4902107;29;20111;-80
2022/08/29 06:02:53;;;;;;;0.00;0.00;;;13.70;99.90;;;;;;4900249;29;20057;-81
2022/08/29 06:05:20;;;;;;;0.00;0.00;;;13.80;99.90;;;;;;4903180;29;20056;-81
2022/08/29 06:07:47;;;;;;;0.00;0.00;;;13.90;99.90;;;;;;4901660;29;20048;-81
2022/08/29 06:10:14;;;;;;;0.00;0.00;;;13.90;99.90;;;;;;4901134;29;20135;-81
2022/08/29 06:12:42;;;;;;;0.00;0.00;;;14.00;99.90;;;;;;4903002;29;20045;-80
2022/08/29 06:15:09;;;;;;;0.00;0.00;;;13.80;99.90;;;;;;4901952;29;20044;-81
2022/08/29 06:17:37;;;;;;;0.00;0.00;;;13.80;99.90;;;;;;4900623;29;20537;-81
2022/08/29 06:20:08;;;;;;;0.00;0.00;;;13.80;99.90;;;;;;4904878;29;20044;-82
2022/08/29 06:22:36;;;;;;;0.00;0.00;;;13.90;99.90;;;;;;4903423;29;20505;-80
2022/08/29 06:25:07;;;;;;;0.00;0.00;;;14.20;99.90;;;;;;4902714;29;20056;-82
2022/08/29 06:27:55;;;;;;;0.05;0.05;;;14.20;99.90;;;;;;4903473;29;20060;-81
2022/08/29 06:30:22;;;;;;;0.00;0.00;;;14.30;99.90;;;;;;4903343;29;20044;-81
2022/08/29 06:32:48;;;;;;;0.00;0.00;;;14.40;99.90;;;;;;4897784;29;20520;-80
2022/08/29 06:35:15;;;;;;;0.00;0.00;;;14.50;99.90;;;;;;4906026;29;20069;-81
2022/08/29 06:37:42;;;;;;;0.00;0.00;;;14.30;99.90;;;;;;4904487;29;20061;-81
2022/08/29 06:40:10;;;;;;;0.00;0.00;;;14.40;99.90;;;;;;4904155;29;20037;-81
2022/08/29 06:42:37;;;;;;;0.00;0.00;;;14.60;99.90;;;;;;4901283;29;20079;-81
2022/08/29 06:45:06;;;;;;;0.00;0.00;;;14.80;99.90;;;;;;4918724;29;20114;-81
2022/08/29 06:47:33;;;;;;;0.00;0.00;;;14.80;99.90;;;;;;4902311;29;20069;-82
2022/08/29 06:50:00;;;;;;;0.00;0.00;;;14.90;99.90;;;;;;4915103;29;20033;-81
2022/08/29 06:52:27;;;;;;;0.00;0.00;;;15.00;99.90;;;;;;4900053;29;20485;-81
2022/08/29 06:54:54;;;;;;;0.00;0.00;;;15.20;99.90;;;;;;4902588;29;20466;-82
2022/08/29 06:57:21;;;;;;;0.00;0.00;;;15.20;99.90;;;;;;4901843;29;20096;-81
2022/08/29 06:59:48;;;;;;;0.00;0.00;;;15.10;99.90;;;;;;4904416;29;20040;-81
2022/08/29 07:02:16;;;;;;;0.00;0.00;;;15.00;99.90;;;;;;4915901;29;20144;-81
2022/08/29 07:04:43;;;;;;;0.00;0.00;;;15.10;99.90;;;;;;4897651;29;20056;-81
2022/08/29 07:07:10;;;;;;;0.00;0.00;;;15.20;99.90;;;;;;4916818;29;20043;-81
2022/08/29 07:09:36;;;;;;;0.00;0.00;;;15.20;99.90;;;;;;4900686;29;20056;-81
2022/08/29 07:12:04;;;;;;;0.00;0.00;;;15.30;99.90;;;;;;4901534;29;20044;-81
2022/08/29 07:14:31;;;;;;;0.00;0.00;;;15.40;99.90;;;;;;4902371;29;20453;-81
2022/08/29 07:16:59;;;;;;;0.00;0.00;;;15.50;99.90;;;;;;4902447;29;20414;-81
2022/08/29 07:19:27;;;;;;;0.00;0.00;;;15.60;99.90;;;;;;4901303;29;20453;-81
2022/08/29 07:21:57;;;;;;;0.00;0.00;;;15.80;99.90;;;;;;4903058;29;20466;-81
2022/08/29 07:24:24;;;;;;;0.00;0.00;;;16.00;99.90;;;;;;4900521;29;20481;-81
2022/08/29 07:26:51;;;;;;;0.00;0.00;;;16.10;99.90;;;;;;4903730;29;20055;-82
2022/08/29 07:29:21;;;;;;;0.00;0.00;;;16.10;99.90;;;;;;4901865;29;20067;-81
2022/08/29 07:31:48;;;;;;;0.00;0.00;;;16.10;99.90;;;;;;4900464;29;20497;-82
2022/08/29 07:34:15;;;;;;;0.00;0.00;;;16.10;99.90;;;;;;4899868;29;20059;-82
2022/08/29 07:36:47;;;;;;;0.00;0.00;;;16.10;99.90;;;;;;4902379;29;20120;-81
2022/08/29 07:39:17;;;;;;;0.00;0.00;;;16.10;99.90;;;;;;4900500;29;20076;-81
2022/08/29 07:41:44;;;;;;;0.00;0.00;;;16.30;99.90;;;;;;4902902;29;20160;-81
2022/08/29 07:44:11;;;;;;;0.00;0.00;;;16.30;99.90;;;;;;4899195;29;20045;-82
2022/08/29 07:46:38;;;;;;;0.00;0.00;;;16.30;99.90;;;;;;4897744;29;20469;-82
2022/08/29 07:49:06;;;;;;;0.00;0.00;;;16.40;99.90;;;;;;4900650;29;20048;-83
2022/08/29 07:51:33;;;;;;;0.00;0.00;;;16.50;99.90;;;;;;4902803;29;20055;-81
2022/08/29 07:54:01;;;;;;;0.00;0.00;;;16.50;99.90;;;;;;4899520;29;20457;-81
2022/08/29 07:56:33;;;;;;;0.00;0.00;;;16.60;99.90;;;;;;4899602;29;20398;-82
2022/08/29 07:59:04;;;;;;;0.00;0.00;;;16.70;99.90;;;;;;4900530;29;20131;-82
2022/08/29 08:01:31;;;;;;;0.00;0.00;;;17.00;99.90;;;;;;4896565;29;20104;-81
2022/08/29 08:03:58;;;;;;;0.00;0.00;;;17.20;99.90;;;;;;4892499;29;20068;-81
2022/08/29 08:06:26;;;;;;;0.00;0.00;;;17.30;99.90;;;;;;4900532;29;20052;-81
2022/08/29 08:08:53;;;;;;;0.00;0.00;;;17.30;99.90;;;;;;4899023;29;21717;-81
2022/08/29 08:11:23;;;;;;;0.00;0.00;;;17.30;99.90;;;;;;4898069;29;20044;-82
2022/08/29 08:13:51;;;;;;;0.00;0.00;;;17.30;99.90;;;;;;4901704;29;20052;-81
2022/08/29 08:16:20;;;;;;;0.00;0.00;;;17.50;99.90;;;;;;4903957;29;20107;-81
2022/08/29 08:18:47;;;;;;;0.00;0.00;;;17.40;99.90;;;;;;4899879;29;20040;-82
2022/08/29 08:21:14;;;;;;;0.00;0.00;;;17.50;99.90;;;;;;4901426;29;20041;-81
2022/08/29 08:23:41;;;;;;;0.00;0.00;;;17.50;99.90;;;;;;4899948;29;20053;-81
2022/08/29 08:26:09;;;;;;;0.00;0.00;;;17.50;99.90;;;;;;4897500;29;20049;-82
2022/08/29 08:28:39;;;;;;;0.00;0.00;;;17.80;99.90;;;;;;4900886;29;20432;-82
2022/08/29 08:31:06;;;;;;;;;;;17.90;99.90;;;;;;4908960;29;20044;-83
2022/08/29 08:33:34;;;;;;;0.00;0.00;;;17.80;99.90;;;;;;4898517;29;19949;-80
2022/08/29 08:36:02;;;;;;;0.00;0.00;;;17.70;99.90;;;;;;4883846;29;20053;-82
2022/08/29 08:38:30;;;;;;;0.10;0.10;;;17.80;99.90;;;;;;4897941;29;20099;-82
2022/08/29 08:41:01;;;;;;;0.00;0.00;;;18.10;99.90;;;;;;4900263;29;20045;-83
2022/08/29 08:43:39;;;;;;;0.00;0.00;;;18.10;99.90;;;;;;4910406;29;20112;-82
2022/08/29 08:46:07;;;;;;;0.00;0.00;;;18.10;99.90;;;;;;4900839;29;20493;-83
2022/08/29 08:48:37;;;;;;;0.00;0.00;;;18.20;99.90;;;;;;4900405;29;20496;-81
2022/08/29 08:51:08;;;;;;;0.00;0.00;;;18.30;99.90;;;;;;4901706;29;20458;-83
2022/08/29 08:53:38;;;;;;;0.00;0.00;;;18.20;99.90;;;;;;4897644;29;20092;-82
2022/08/29 08:58:43;;;;;;;0.00;0.00;;;18.40;99.90;;;;;;4871227;29;20052;-81
2022/08/29 09:01:19;;;;;;;0.00;0.00;;;18.60;99.90;;;;;;4867504;29;20089;-80
2022/08/29 09:04:11;;;;;;;0.00;0.00;;;18.60;99.90;;;;;;4874004;29;20060;-80
2022/08/29 09:06:52;;;;;;;0.00;0.00;;;18.50;99.90;;;;;;4873855;29;20109;-79
2022/08/29 09:09:27;;;;;;;0.00;0.00;;;18.50;99.90;;;;;;4850245;29;20045;-81
2022/08/29 09:12:03;;;;;;;0.00;0.00;;;18.80;99.90;;;;;;4852143;29;20392;-82
2022/08/29 09:14:43;;;;;;;0.00;0.00;;;19.10;99.90;;;;;;4854532;29;20053;-80
2022/08/29 09:17:16;;;;;;;0.00;0.00;;;19.20;99.90;;;;;;4855053;29;20053;-81
2022/08/29 09:19:45;;;;;;;0.00;0.00;;;19.30;99.90;;;;;;4859155;29;20053;-81
2022/08/29 09:22:21;;;;;;;0.00;0.00;;;19.40;99.90;;;;;;4855068;29;20045;-81
2022/08/29 09:24:54;;;;;;;0.00;0.00;;;19.40;99.90;;;;;;4856523;29;20113;-80
2022/08/29 09:27:23;;;;;;;0.00;0.00;;;19.30;99.90;;;;;;4859970;29;20554;-79
2022/08/29 09:30:06;;;;;;;0.00;0.00;;;19.40;99.90;;;;;;4858040;29;20045;-79
2022/08/29 09:32:33;;;;;;;0.00;0.00;;;19.60;99.90;;;;;;4857125;29;20095;-81
2022/08/29 09:35:16;;;;;;;0.00;0.00;;;19.80;99.90;;;;;;4858286;29;20037;-79
2022/08/29 09:37:50;;;;;;;0.00;0.00;;;19.80;99.90;;;;;;4856933;29;20057;-79
2022/08/29 09:40:17;;;;;;;0.00;0.00;;;19.70;99.90;;;;;;4858966;29;20084;-81
2022/08/29 09:42:58;;;;;;;0.00;0.00;;;19.70;99.90;;;;;;4857196;29;20092;-80
2022/08/29 09:45:26;;;;;;;0.00;0.00;;;19.70;99.90;;;;;;4865806;29;20044;-79
2022/08/29 09:48:07;;;;;;;0.00;0.00;;;19.70;99.90;;;;;;4859761;29;20515;-80
2022/08/29 09:50:34;;;;;;;0.00;0.00;;;19.70;99.90;;;;;;4861649;29;20124;-79
2022/08/29 09:53:03;;;;;;;0.00;0.00;;;19.50;99.90;;;;;;4858223;29;20048;-80
2022/08/29 09:55:43;;;;;;;0.00;0.00;;;19.60;99.90;;;;;;4856168;29;20061;-80
2022/08/29 09:58:28;;;;;;;0.00;0.00;;;19.80;99.90;;;;;;4855670;29;20086;-81
2022/08/29 10:01:00;;;;;;;0.00;0.00;;;19.90;99.90;;;;;;4854825;29;20041;-80
2022/08/29 10:03:33;;;;;;;0.00;0.00;;;20.00;99.90;;;;;;4852159;29;20041;-80
2022/08/29 10:06:11;;;;;;;0.00;0.00;;;19.80;99.90;;;;;;4871958;29;20045;-80
2022/08/29 10:08:40;;;;;;;0.00;0.00;;;19.80;99.90;;;;;;4858366;29;20506;-79
2022/08/29 10:11:23;;;;;;;0.00;0.00;;;19.80;99.90;;;;;;4852902;29;20044;-79
2022/08/29 10:13:54;;;;;;;0.00;0.00;;;20.00;99.90;;;;;;4867599;29;20053;-80
2022/08/29 10:16:36;;;;;;;0.00;0.00;;;20.30;99.90;;;;;;4851323;29;20551;-80
2022/08/29 10:19:08;;;;;;;0.00;0.00;;;20.20;99.90;;;;;;4854182;29;20041;-80
2022/08/29 10:21:45;;;;;;;0.00;0.00;;;20.20;99.90;;;;;;4861904;29;20054;-80
2022/08/29 10:24:23;;;;;;;0.00;0.00;;;20.30;99.90;;;;;;4864435;29;20052;-81
2022/08/29 10:26:56;;;;;;;0.00;0.00;;;20.40;99.90;;;;;;4847281;29;20522;-80
2022/08/29 10:29:35;;;;;;;0.00;0.00;;;20.70;99.90;;;;;;4855070;29;20052;-81
2022/08/29 10:32:12;;;;;;;0.00;0.00;;;21.20;99.90;;;;;;4852187;29;20045;-81
2022/08/29 10:34:54;;;;;;;0.00;0.00;;;21.30;99.90;;;;;;4853559;29;20336;-81
2022/08/29 10:37:32;;;;;;;0.00;0.00;;;21.30;99.90;;;;;;4854381;29;20045;-81
2022/08/29 10:40:04;;;;;;;0.00;0.00;;;21.10;99.90;;;;;;4855405;29;20045;-81
2022/08/29 10:42:35;;;;;;;0.00;0.00;;;20.70;99.90;;;;;;4861097;29;20049;-80
2022/08/29 10:45:13;;;;;;;0.00;0.00;;;20.40;99.90;;;;;;4877307;29;20045;-80
2022/08/29 10:47:49;;;;;;;0.00;0.00;;;20.30;99.90;;;;;;4875914;29;20075;-81
2022/08/29 10:50:26;;;;;;;0.00;0.00;;;20.10;99.90;;;;;;4863148;29;20459;-81
2022/08/29 10:53:15;;;;;;;0.00;0.00;;;19.90;99.90;;;;;;4862783;29;20061;-79
2022/08/29 10:55:50;;;;;;;0.00;0.00;;;20.00;99.90;;;;;;4873044;29;20045;-79
2022/08/29 10:58:38;;;;;;;0.00;0.00;;;20.10;99.90;;;;;;4861639;29;20097;-80
2022/08/29 11:01:11;;;;;;;0.00;0.00;;;20.20;99.90;;;;;;4865469;29;20100;-80
2022/08/29 11:03:45;;;;;;;0.00;0.00;;;20.20;99.90;;;;;;4862731;29;20506;-79
2022/08/29 11:06:16;;;;;;;0.00;0.00;;;20.20;99.90;;;;;;4869262;29;20068;-81
2022/08/29 11:08:54;;;;;;;0.00;0.00;;;20.00;99.90;;;;;;4868267;29;20045;-79
2022/08/29 11:11:24;;;;;;;0.00;0.00;;;20.10;99.90;;;;;;4881062;29;20506;-80
2022/08/29 11:13:56;;;;;;;0.00;0.00;;;20.10;99.90;;;;;;4871764;29;20101;-79
2022/08/29 11:16:35;;;;;;;0.00;0.00;;;20.50;99.90;;;;;;4856916;29;20082;-78
2022/08/29 11:19:11;;;;;;;0.00;0.00;;;20.40;99.90;;;;;;4863239;29;20504;-79
2022/08/29 11:21:42;;;;;;;0.00;0.00;;;20.50;99.90;;;;;;4865547;29;20533;-80
2022/08/29 11:24:10;;;;;;;0.00;0.00;;;20.60;99.90;;;;;;4867989;29;20053;-81
2022/08/29 11:26:48;;;;;;;0.00;0.00;;;20.60;99.90;;;;;;4864999;29;20049;-80
2022/08/29 11:29:25;;;;;;;0.00;0.00;;;20.70;99.90;;;;;;4858983;29;20052;-79
2022/08/29 11:32:00;;;;;;;0.00;0.00;;;21.00;99.90;;;;;;4863993;29;20105;-81
2022/08/29 11:34:43;;;;;;;0.00;0.00;;;21.20;99.90;;;;;;4860680;29;20053;-81
2022/08/29 11:37:35;;;;;;;0.00;0.00;;;21.30;99.90;;;;;;4858162;29;20055;-80
2022/08/29 11:40:07;;;;;;;0.00;0.00;;;21.50;99.90;;;;;;4860213;29;20057;-81
2022/08/29 11:42:38;;;;;;;0.00;0.00;;;21.90;99.90;;;;;;4856656;29;20049;-79
2022/08/29 11:45:24;;;;;;;0.00;0.00;;;22.00;99.90;;;;;;4863262;29;20056;-79
2022/08/29 11:48:18;;;;;;;0.00;0.00;;;21.90;99.90;;;;;;4857516;29;20045;-82
2022/08/29 11:50:47;;;;;;;0.00;0.00;;;22.00;99.90;;;;;;4851609;29;20456;-81
2022/08/29 11:53:32;;;;;;;;;;;22.10;99.90;;;;;;4859096;29;20060;-81
2022/08/29 11:56:19;;;;;;;0.00;0.00;;;22.40;99.90;;;;;;4850444;29;20373;-81
2022/08/29 11:58:48;;;;;;;0.00;0.00;;;22.60;99.90;;;;;;4877301;29;20094;-82
2022/08/29 12:01:49;;;;;;;0.00;0.00;;;22.50;99.90;;;;;;4854725;29;20521;-82
2022/08/29 12:04:52;;;;;;;0.00;0.00;;;22.70;99.50;;;;;;4856057;29;20490;-81
2022/08/29 12:07:31;;;;;;;0.00;0.00;;;22.50;99.30;;;;;;4853714;29;20464;-81
2022/08/29 12:10:01;;;;;;;0.00;0.00;;;22.40;99.30;;;;;;4854486;29;20049;-81
2022/08/29 12:12:44;;;;;;;0.00;0.00;;;22.10;99.50;;;;;;4859037;29;20049;-79
2022/08/29 12:15:50;;;;;;;0.00;0.00;;;22.20;99.90;;;;;;4849276;29;20049;-81
2022/08/29 12:18:33;;;;;;;0.00;0.00;;;22.10;99.90;;;;;;4868146;29;20045;-79
2022/08/29 12:21:44;;;;;;;0.00;0.00;;;21.90;99.90;;;;;;4853266;29;20041;-80
2022/08/29 12:24:38;;;;;;;0.00;0.00;;;21.70;99.90;;;;;;4858183;29;20529;-79
2022/08/29 12:27:21;;;;;;;0.00;0.00;;;21.70;99.90;;;;;;4852059;29;20053;-81
2022/08/29 12:29:50;;;;;;;0.00;0.00;;;21.90;99.40;;;;;;4852977;29;20503;-79
2022/08/29 12:32:39;;;;;;;0.00;0.00;;;21.90;99.30;;;;;;4853269;29;20034;-82
2022/08/29 12:35:28;;;;;;;0.00;0.00;;;21.90;99.90;;;;;;4860070;29;20076;-81
2022/08/29 12:38:11;;;;;;;0.00;0.00;;;21.90;99.70;;;;;;4877223;29;20049;-78
2022/08/29 12:40:49;;;;;;;0.00;0.00;;;21.90;99.90;;;;;;4852495;29;20106;-81
2022/08/29 12:43:29;;;;;;;0.00;0.00;;;21.90;99.70;;;;;;4854528;29;20049;-81
2022/08/29 12:45:57;;;;;;;0.00;0.00;;;21.90;99.50;;;;;;4853924;29;20049;-80
2022/08/29 12:48:31;;;;;;;0.00;0.00;;;21.80;99.10;;;;;;4857896;29;20046;-79
2022/08/29 12:50:59;;;;;;;0.00;0.00;;;21.90;99.70;;;;;;4857903;29;20093;-81
2022/08/29 12:53:32;;;;;;;0.00;0.00;;;22.10;99.00;;;;;;4858914;29;20490;-81
2022/08/29 12:56:00;;;;;;;0.00;0.00;;;22.00;99.20;;;;;;4862382;29;20045;-81
2022/08/29 12:58:37;;;;;;;0.00;0.00;;;21.80;99.50;;;;;;4856313;29;20049;-81
2022/08/29 13:01:15;;;;;;;0.00;0.00;;;22.20;99.20;;;;;;4872667;29;20586;-80
2022/08/29 13:03:54;;;;;;;0.00;0.00;;;22.30;98.70;;;;;;4856866;29;20054;-81
2022/08/29 13:06:21;;;;;;;0.00;0.00;;;22.30;98.80;;;;;;4860200;29;20494;-81
2022/08/29 13:08:49;;;;;;;0.00;0.00;;;22.40;98.50;;;;;;4864563;29;20057;-82
2022/08/29 13:11:19;;;;;;;0.00;0.00;;;22.60;97.80;;;;;;4861981;29;20078;-81
2022/08/29 13:13:48;;;;;;;0.00;0.00;;;22.60;98.60;;;;;;4859708;29;20053;-81
2022/08/29 13:16:24;;;;;;;0.00;0.00;;;22.80;98.10;;;;;;4861363;29;20053;-81